createdAt,value
2022-11-19T00:00:08.464Z,13.60
2022-11-19T00:03:13.715Z,13.60
2022-11-19T00:06:21.383Z,13.60
2022-11-19T00:09:23.358Z,13.60
2022-11-19T00:12:44.107Z,13.60
2022-11-19T00:15:46.463Z,13.60
2022-11-19T00:18:50.522Z,13.60
2022-11-19T00:21:52.583Z,13.60
2022-11-19T00:24:54.626Z,13.60
2022-11-19T00:27:58.894Z,13.60
2022-11-19T00:31:03.192Z,13.50
2022-11-19T00:34:05.424Z,13.50
2022-11-19T00:37:07.497Z,13.50
2022-11-19T00:40:11.999Z,13.50
2022-11-19T00:43:32.958Z,13.50
2022-11-19T00:46:35.024Z,13.50
2022-11-19T00:49:38.955Z,13.50
2022-11-19T00:52:40.976Z,13.50
2022-11-19T00:55:44.655Z,13.50
2022-11-19T00:58:47.674Z,13.60
2022-11-19T01:01:49.771Z,13.60
2022-11-19T01:04:51.781Z,13.60
2022-11-19T01:07:54.414Z,13.60
2022-11-19T01:10:57.187Z,13.60
2022-11-19T01:14:01.023Z,13.60
2022-11-19T01:17:05.890Z,13.60
2022-11-19T01:20:08.946Z,13.60
2022-11-19T01:23:11.738Z,13.60
2022-11-19T01:26:17.152Z,13.60
2022-11-19T01:29:20.426Z,13.60
2022-11-19T01:32:22.756Z,13.60
2022-11-19T01:35:25.912Z,13.60
2022-11-19T01:38:29.868Z,13.60
2022-11-19T01:41:34.025Z,13.60
2022-11-19T01:45:01.765Z,13.60
2022-11-19T01:48:06.600Z,13.60
2022-11-19T01:51:10.328Z,13.60
2022-11-19T01:54:26.689Z,13.70
2022-11-19T01:57:28.798Z,13.70
2022-11-19T02:00:32.418Z,13.70
2022-11-19T02:03:38.497Z,13.70
2022-11-19T02:06:42.071Z,13.70
2022-11-19T02:09:45.199Z,13.70
2022-11-19T02:13:25.186Z,13.70
2022-11-19T02:16:51.459Z,13.70
2022-11-19T02:20:24.533Z,13.70
2022-11-19T02:23:47.649Z,13.70
2022-11-19T02:27:23.875Z,13.60
2022-11-19T02:30:50.631Z,13.60
2022-11-19T02:34:08.985Z,13.60
2022-11-19T02:37:22.180Z,13.50
2022-11-19T02:40:34.079Z,13.50
2022-11-19T02:43:39.961Z,13.50
2022-11-19T02:46:42.500Z,13.50
2022-11-19T02:49:45.358Z,13.50
2022-11-19T02:52:48.752Z,13.50
2022-11-19T02:56:13.876Z,13.40
2022-11-19T02:59:39.144Z,13.50
2022-11-19T03:03:13.039Z,13.40
2022-11-19T03:06:20.578Z,13.40
2022-11-19T03:09:23.594Z,13.40
2022-11-19T03:12:34.483Z,13.30
2022-11-19T03:15:54.894Z,13.40
2022-11-19T03:19:31.892Z,13.40
2022-11-19T03:22:35.889Z,13.50
2022-11-19T03:26:04.129Z,13.60
2022-11-19T03:29:10.488Z,13.60
2022-11-19T03:32:18.768Z,13.60
2022-11-19T03:35:26.310Z,13.70
2022-11-19T03:38:32.990Z,13.70
2022-11-19T03:41:37.975Z,13.80
2022-11-19T03:44:46.147Z,13.80
2022-11-19T03:47:50.536Z,13.80
2022-11-19T03:50:58.241Z,13.80
2022-11-19T03:54:00.388Z,13.80
2022-11-19T03:57:05.801Z,13.70
2022-11-19T04:00:08.980Z,13.80
2022-11-19T04:03:18.108Z,13.70
2022-11-19T04:06:20.088Z,13.70
2022-11-19T04:09:22.392Z,13.80
2022-11-19T04:12:25.682Z,13.80
2022-11-19T04:15:27.907Z,13.70
2022-11-19T04:18:30.465Z,13.70
2022-11-19T04:21:32.546Z,13.70
2022-11-19T04:24:34.779Z,13.70
2022-11-19T04:27:37.253Z,13.70
2022-11-19T04:30:39.455Z,13.70
2022-11-19T04:33:41.484Z,13.70
2022-11-19T04:36:43.584Z,13.60
2022-11-19T04:39:45.727Z,13.60
2022-11-19T04:42:47.761Z,13.60
2022-11-19T04:45:49.912Z,13.60
2022-11-19T04:48:52.097Z,13.60
2022-11-19T04:51:54.392Z,13.50
2022-11-19T04:54:56.396Z,13.50
2022-11-19T04:57:58.403Z,13.50
2022-11-19T05:01:00.454Z,13.50
2022-11-19T05:04:06.634Z,13.50
2022-11-19T05:07:08.721Z,13.50
2022-11-19T05:10:11.255Z,13.50
2022-11-19T05:13:13.455Z,13.50
2022-11-19T05:16:20.222Z,13.50
2022-11-19T05:19:23.361Z,13.50
2022-11-19T05:22:25.606Z,13.50
2022-11-19T05:25:27.972Z,13.50
2022-11-19T05:28:38.403Z,13.50
2022-11-19T05:31:41.615Z,13.60
2022-11-19T05:34:44.919Z,13.60
2022-11-19T05:37:50.150Z,13.60
2022-11-19T05:40:52.159Z,13.50
2022-11-19T05:43:54.298Z,13.50
2022-11-19T05:46:57.576Z,13.50
2022-11-19T05:49:59.804Z,13.50
2022-11-19T05:53:02.449Z,13.50
2022-11-19T05:56:04.726Z,13.40
2022-11-19T05:59:06.807Z,13.40
2022-11-19T06:02:09.417Z,13.50
2022-11-19T06:05:12.049Z,13.50
2022-11-19T06:08:15.194Z,13.50
2022-11-19T06:11:36.365Z,13.60
2022-11-19T06:14:38.464Z,13.70
2022-11-19T06:17:40.493Z,13.70
2022-11-19T06:20:42.574Z,13.70
2022-11-19T06:23:44.665Z,13.70
2022-11-19T06:26:47.187Z,13.70
2022-11-19T06:29:53.500Z,13.70
2022-11-19T06:32:58.034Z,13.70
2022-11-19T06:36:02.229Z,13.80
2022-11-19T06:39:05.222Z,13.70
2022-11-19T06:42:25.991Z,13.60
2022-11-19T06:45:30.910Z,13.50
2022-11-19T06:48:33.009Z,13.50
2022-11-19T06:51:35.683Z,13.50
2022-11-19T06:54:41.722Z,13.40
2022-11-19T06:57:45.653Z,13.30
2022-11-19T07:00:47.784Z,13.30
2022-11-19T07:03:52.117Z,13.30
2022-11-19T07:06:54.140Z,13.20
2022-11-19T07:09:56.292Z,13.20
2022-11-19T07:12:58.481Z,13.10
2022-11-19T07:16:02.956Z,13.10
2022-11-19T07:19:08.045Z,13.10
2022-11-19T07:22:10.651Z,13.00
2022-11-19T07:25:13.423Z,13.00
2022-11-19T07:28:15.825Z,12.90
2022-11-19T07:31:17.861Z,13.00
2022-11-19T07:34:20.664Z,12.90
2022-11-19T07:37:22.729Z,13.00
2022-11-19T07:40:25.708Z,13.00
2022-11-19T07:43:28.891Z,13.10
2022-11-19T07:46:31.021Z,13.10
2022-11-19T07:49:33.326Z,13.30
2022-11-19T07:52:35.468Z,13.80
2022-11-19T07:55:37.577Z,14.80
2022-11-19T07:58:39.637Z,16.00
2022-11-19T08:01:42.147Z,17.10
2022-11-19T08:04:44.301Z,18.00
2022-11-19T08:07:46.327Z,18.90
2022-11-19T08:10:48.397Z,19.40
2022-11-19T08:13:50.962Z,19.90
2022-11-19T08:17:12.264Z,20.30
2022-11-19T08:20:19.432Z,21.10
2022-11-19T08:23:24.251Z,21.40
2022-11-19T08:26:26.253Z,22.00
2022-11-19T08:29:28.324Z,23.00
2022-11-19T08:32:30.387Z,23.50
2022-11-19T08:35:32.537Z,24.20
2022-11-19T08:38:38.441Z,23.80
2022-11-19T08:41:59.360Z,23.10
2022-11-19T08:45:01.620Z,22.50
2022-11-19T08:48:10.599Z,21.90
2022-11-19T08:51:15.017Z,21.20
2022-11-19T08:54:17.463Z,20.40
2022-11-19T08:57:20.778Z,19.90
2022-11-19T09:00:23.031Z,20.40
2022-11-19T09:03:25.777Z,21.30
2022-11-19T09:06:27.884Z,22.70
2022-11-19T09:09:30.006Z,24.50
2022-11-19T09:12:32.071Z,26.30
2022-11-19T09:15:34.115Z,27.30
2022-11-19T09:18:40.284Z,28.20
2022-11-19T09:21:42.471Z,29.00
2022-11-19T09:24:44.565Z,29.50
2022-11-19T09:27:46.561Z,28.90
2022-11-19T09:30:59.097Z,30.40
2022-11-19T09:34:05.477Z,30.10
2022-11-19T09:37:10.661Z,29.80
2022-11-19T09:40:19.191Z,30.70
2022-11-19T09:43:47.149Z,30.50
2022-11-19T09:47:19.623Z,30.80
2022-11-19T09:50:23.430Z,31.40
2022-11-19T09:53:30.342Z,31.60
2022-11-19T09:56:41.632Z,31.50
2022-11-19T09:59:43.752Z,31.30
2022-11-19T10:02:46.044Z,31.70
2022-11-19T10:06:13.791Z,32.20
2022-11-19T10:09:38.772Z,33.50
2022-11-19T10:12:53.179Z,32.40
2022-11-19T10:16:13.617Z,32.30
2022-11-19T10:19:39.846Z,31.20
2022-11-19T10:22:57.531Z,31.70
2022-11-19T10:26:06.430Z,31.90
2022-11-19T10:29:23.624Z,32.10
2022-11-19T10:32:44.223Z,30.80
2022-11-19T10:35:50.868Z,30.20
2022-11-19T10:38:58.334Z,28.50
2022-11-19T10:42:19.827Z,27.30
2022-11-19T10:45:25.251Z,26.20
2022-11-19T10:48:41.739Z,24.90
2022-11-19T10:51:44.851Z,24.50
2022-11-19T10:54:48.451Z,24.80
2022-11-19T10:57:56.711Z,26.00
2022-11-19T11:01:04.451Z,26.80
2022-11-19T11:04:17.616Z,27.00
2022-11-19T11:07:23.124Z,28.20
2022-11-19T11:10:38.825Z,28.40
2022-11-19T11:14:01.833Z,27.30
2022-11-19T11:17:06.537Z,27.60
2022-11-19T11:20:24.485Z,28.70
2022-11-19T11:23:31.146Z,29.60
2022-11-19T11:26:37.966Z,30.20
2022-11-19T11:29:40.346Z,29.80
2022-11-19T11:32:42.852Z,30.00
2022-11-19T11:35:45.952Z,29.40
2022-11-19T11:38:50.813Z,29.50
2022-11-19T11:42:05.298Z,29.30
2022-11-19T11:45:33.416Z,27.80
2022-11-19T11:48:43.719Z,25.80
2022-11-19T11:51:46.042Z,24.40
2022-11-19T11:55:16.193Z,24.10
2022-11-19T11:58:27.160Z,23.30
2022-11-19T12:01:29.201Z,22.70
2022-11-19T12:04:31.772Z,22.30
2022-11-19T12:07:57.963Z,22.00
2022-11-19T12:11:19.953Z,21.90
2022-11-19T12:14:50.268Z,21.90
2022-11-19T12:18:07.568Z,21.80
2022-11-19T12:21:12.429Z,21.30
2022-11-19T12:24:34.748Z,21.00
2022-11-19T12:27:47.269Z,21.00
2022-11-19T12:31:13.684Z,20.80
2022-11-19T12:34:42.405Z,20.70
2022-11-19T12:38:04.913Z,20.50
2022-11-19T12:41:37.381Z,20.30
2022-11-19T12:44:51.364Z,19.80
2022-11-19T12:48:23.812Z,19.70
2022-11-19T12:51:44.578Z,19.70
2022-11-19T12:54:59.623Z,19.60
2022-11-19T12:58:04.476Z,19.70
2022-11-19T13:01:14.215Z,19.60
2022-11-19T13:04:52.054Z,19.50
2022-11-19T13:08:12.669Z,19.20
2022-11-19T13:11:26.400Z,19.30
2022-11-19T13:14:35.844Z,19.30
2022-11-19T13:17:44.652Z,19.30
2022-11-19T13:20:49.610Z,19.50
2022-11-19T13:23:53.647Z,19.50
2022-11-19T13:26:59.822Z,19.50
2022-11-19T13:30:09.074Z,19.50
2022-11-19T13:33:25.235Z,19.70
2022-11-19T13:36:42.910Z,19.80
2022-11-19T13:39:59.699Z,19.90
2022-11-19T13:43:36.469Z,20.00
2022-11-19T13:46:43.589Z,20.00
2022-11-19T13:49:51.265Z,19.80
2022-11-19T13:52:56.958Z,19.80
2022-11-19T13:55:59.820Z,19.60
2022-11-19T13:59:02.154Z,19.40
2022-11-19T14:02:37.777Z,19.20
2022-11-19T14:05:46.110Z,19.20
2022-11-19T14:09:06.304Z,19.10
2022-11-19T14:12:39.535Z,19.10
2022-11-19T14:16:10.219Z,19.10
2022-11-19T14:19:34.428Z,19.10
2022-11-19T14:23:02.166Z,19.20
2022-11-19T14:26:22.499Z,19.20
2022-11-19T14:29:27.352Z,19.00
2022-11-19T14:33:01.422Z,18.90
2022-11-19T14:36:11.722Z,18.80
2022-11-19T14:39:39.629Z,18.60
2022-11-19T14:43:18.987Z,18.60
2022-11-19T14:46:26.595Z,18.50
2022-11-19T14:49:38.058Z,18.70
2022-11-19T14:52:55.030Z,18.60
2022-11-19T14:55:58.605Z,18.70
2022-11-19T14:59:10.307Z,18.80
2022-11-19T15:02:33.731Z,18.80
2022-11-19T15:05:40.640Z,18.80
2022-11-19T15:08:51.268Z,18.70
2022-11-19T15:11:56.331Z,18.80
2022-11-19T15:15:21.363Z,18.70
2022-11-19T15:18:41.573Z,18.60
2022-11-19T15:21:44.814Z,18.60
2022-11-19T15:24:59.677Z,18.60
2022-11-19T15:28:01.544Z,18.60
2022-11-19T15:31:24.959Z,18.60
2022-11-19T15:34:56.128Z,18.50
2022-11-19T15:38:36.141Z,18.40
2022-11-19T15:41:44.460Z,18.40
2022-11-19T15:45:04.935Z,18.30
2022-11-19T15:48:20.050Z,18.30
2022-11-19T15:51:22.766Z,18.30
2022-11-19T15:54:29.981Z,18.20
2022-11-19T15:57:32.100Z,18.10
2022-11-19T16:00:46.370Z,18.10
2022-11-19T16:03:52.337Z,18.10
2022-11-19T16:06:56.083Z,18.10
2022-11-19T16:09:59.792Z,18.10
2022-11-19T16:13:22.948Z,18.10
2022-11-19T16:16:50.360Z,18.10
2022-11-19T16:20:01.435Z,18.10
2022-11-19T16:23:10.662Z,18.00
2022-11-19T16:26:12.760Z,18.00
2022-11-19T16:29:23.929Z,17.90
2022-11-19T16:32:27.614Z,17.90
2022-11-19T16:35:32.781Z,17.70
2022-11-19T16:38:36.440Z,17.70
2022-11-19T16:41:57.072Z,17.60
2022-11-19T16:45:21.013Z,17.50
2022-11-19T16:48:50.596Z,17.50
2022-11-19T16:51:54.292Z,17.40
2022-11-19T16:54:56.261Z,17.30
2022-11-19T16:58:00.683Z,17.30
2022-11-19T17:01:03.601Z,17.20
2022-11-19T17:04:07.903Z,17.10
2022-11-19T17:07:14.691Z,17.10
2022-11-19T17:10:22.870Z,17.00
2022-11-19T17:13:32.447Z,17.00
2022-11-19T17:16:35.412Z,16.90
2022-11-19T17:19:37.384Z,16.90
2022-11-19T17:22:40.151Z,16.90
2022-11-19T17:25:57.442Z,16.90
2022-11-19T17:29:11.645Z,16.90
2022-11-19T17:32:13.712Z,16.80
2022-11-19T17:35:31.172Z,16.80
2022-11-19T17:38:34.280Z,16.80
2022-11-19T17:41:56.530Z,16.80
2022-11-19T17:45:02.698Z,16.80
2022-11-19T17:48:21.677Z,16.70
2022-11-19T17:51:25.603Z,16.70
2022-11-19T17:54:30.892Z,16.70
2022-11-19T17:57:32.957Z,16.70
2022-11-19T18:00:35.780Z,16.70
2022-11-19T18:03:39.229Z,16.70
2022-11-19T18:06:42.096Z,16.60
2022-11-19T18:09:44.942Z,16.60
2022-11-19T18:12:46.959Z,16.60
2022-11-19T18:15:50.840Z,16.60
2022-11-19T18:18:54.449Z,16.60
2022-11-19T18:21:57.094Z,16.50
2022-11-19T18:24:59.510Z,16.50
2022-11-19T18:28:02.751Z,16.50
2022-11-19T18:31:07.586Z,16.50
2022-11-19T18:34:19.371Z,16.50
2022-11-19T18:37:21.440Z,16.60
2022-11-19T18:40:23.403Z,16.60
2022-11-19T18:43:43.890Z,16.50
2022-11-19T18:46:45.986Z,16.50
2022-11-19T18:49:48.148Z,16.40
2022-11-19T18:52:50.168Z,16.40
2022-11-19T18:55:52.274Z,16.40
2022-11-19T18:58:59.204Z,16.40
2022-11-19T19:02:07.261Z,16.40
2022-11-19T19:05:09.614Z,16.30
2022-11-19T19:08:17.269Z,16.40
2022-11-19T19:11:40.154Z,16.30
2022-11-19T19:14:57.144Z,16.30
2022-11-19T19:18:07.920Z,16.20
2022-11-19T19:21:14.360Z,16.10
2022-11-19T19:24:16.573Z,16.10
2022-11-19T19:27:21.789Z,16.10
2022-11-19T19:30:26.688Z,16.10
2022-11-19T19:33:30.628Z,16.00
2022-11-19T19:36:34.784Z,16.00
2022-11-19T19:39:37.075Z,15.90
2022-11-19T19:42:41.425Z,15.90
2022-11-19T19:45:44.170Z,15.90
2022-11-19T19:48:52.380Z,15.90
2022-11-19T19:51:54.665Z,15.90
2022-11-19T19:54:56.678Z,15.90
2022-11-19T19:58:03.471Z,15.90
2022-11-19T20:01:10.589Z,15.80
2022-11-19T20:04:12.961Z,15.90
2022-11-19T20:07:15.186Z,15.80
2022-11-19T20:10:17.322Z,15.80
2022-11-19T20:13:28.565Z,15.80
2022-11-19T20:16:32.351Z,15.80
2022-11-19T20:19:34.562Z,15.80
2022-11-19T20:22:36.729Z,15.80
2022-11-19T20:25:39.046Z,15.90
2022-11-19T20:28:41.880Z,15.90
2022-11-19T20:31:48.409Z,16.00
2022-11-19T20:34:50.878Z,16.00
2022-11-19T20:37:54.294Z,16.00
2022-11-19T20:41:03.988Z,16.00
2022-11-19T20:44:26.026Z,16.00
2022-11-19T20:47:28.275Z,16.00
2022-11-19T20:50:30.343Z,16.00
2022-11-19T20:53:32.680Z,16.00
2022-11-19T20:56:36.120Z,16.00
2022-11-19T20:59:38.631Z,16.00
2022-11-19T21:02:40.873Z,16.00
2022-11-19T21:05:43.766Z,16.00
2022-11-19T21:08:45.934Z,15.90
2022-11-19T21:11:48.991Z,15.90
2022-11-19T21:14:51.242Z,15.90
2022-11-19T21:17:53.382Z,15.80
2022-11-19T21:21:01.860Z,15.80
2022-11-19T21:24:04.484Z,15.70
2022-11-19T21:27:06.548Z,15.70
2022-11-19T21:30:10.183Z,15.70
2022-11-19T21:33:12.466Z,15.70
2022-11-19T21:36:15.128Z,15.60
2022-11-19T21:39:18.901Z,15.60
2022-11-19T21:42:21.229Z,15.60
2022-11-19T21:45:23.293Z,15.60
2022-11-19T21:48:27.054Z,15.60
2022-11-19T21:51:29.326Z,15.60
2022-11-19T21:54:31.683Z,15.60
2022-11-19T21:57:33.927Z,15.60
2022-11-19T22:00:36.087Z,15.60
2022-11-19T22:03:38.844Z,15.60
2022-11-19T22:06:42.376Z,15.60
2022-11-19T22:10:02.983Z,15.60
2022-11-19T22:13:05.060Z,15.60
2022-11-19T22:16:07.437Z,15.60
2022-11-19T22:19:11.651Z,15.60
2022-11-19T22:22:14.846Z,15.60
2022-11-19T22:25:16.898Z,15.60
2022-11-19T22:28:20.107Z,15.60
2022-11-19T22:31:22.384Z,15.60
2022-11-19T22:34:25.224Z,15.60
2022-11-19T22:37:28.314Z,15.50
2022-11-19T22:40:31.033Z,15.60
2022-11-19T22:43:34.711Z,15.60
2022-11-19T22:46:36.754Z,15.70
2022-11-19T22:49:38.827Z,15.70
2022-11-19T22:52:43.078Z,15.80
2022-11-19T22:55:45.120Z,15.80
2022-11-19T22:58:48.975Z,15.90
2022-11-19T23:01:51.270Z,15.90
2022-11-19T23:04:53.343Z,15.90
2022-11-19T23:07:56.922Z,15.90
2022-11-19T23:11:04.104Z,15.90
2022-11-19T23:14:08.711Z,15.90
2022-11-19T23:17:12.690Z,15.80
2022-11-19T23:20:14.978Z,15.80
2022-11-19T23:23:16.952Z,15.70
2022-11-19T23:26:21.632Z,15.70
2022-11-19T23:29:23.701Z,15.60
2022-11-19T23:32:25.802Z,15.60
2022-11-19T23:35:27.753Z,15.60
2022-11-19T23:38:29.880Z,15.50
2022-11-19T23:41:33.591Z,15.40
2022-11-19T23:44:35.644Z,15.40
2022-11-19T23:47:38.039Z,15.30
2022-11-19T23:50:40.098Z,15.30
2022-11-19T23:53:43.213Z,15.30
2022-11-19T23:56:45.251Z,15.30
2022-11-19T23:59:47.282Z,15.30
